sensor_id;sensor_type;location;lat;lon;timestamp;temperature;humidity
21459;DHT22;10891;49.350;19.386;2023-01-29T00:01:32;-2.70;1.00
21459;DHT22;10891;49.350;19.386;2023-01-29T00:04:00;-2.60;1.00
21459;DHT22;10891;49.350;19.386;2023-01-29T00:06:27;-2.60;1.00
21459;DHT22;10891;49.350;19.386;2023-01-29T00:08:54;-2.60;1.00
21459;DHT22;10891;49.350;19.386;2023-01-29T00:11:21;-2.60;1.00
21459;DHT22;10891;49.350;19.386;2023-01-29T00:13:50;-2.60;1.00
21459;DHT22;10891;49.350;19.386;2023-01-29T00:16:17;-2.70;1.00
21459;DHT22;10891;49.350;19.386;2023-01-29T00:18:44;-2.60;1.00
21459;DHT22;10891;49.350;19.386;2023-01-29T00:21:14;-2.70;1.00
21459;DHT22;10891;49.350;19.386;2023-01-29T00:23:42;-2.60;1.00
21459;DHT22;10891;49.350;19.386;2023-01-29T00:26:09;-2.70;1.00
21459;DHT22;10891;49.350;19.386;2023-01-29T00:28:37;-2.60;1.00
21459;DHT22;10891;49.350;19.386;2023-01-29T00:31:07;-2.60;1.00
21459;DHT22;10891;49.350;19.386;2023-01-29T00:33:34;-2.70;99.90
21459;DHT22;10891;49.350;19.386;2023-01-29T00:36:03;-2.60;1.00
21459;DHT22;10891;49.350;19.386;2023-01-29T00:38:32;-2.70;99.90
21459;DHT22;10891;49.350;19.386;2023-01-29T00:41:04;-2.70;1.00
21459;DHT22;10891;49.350;19.386;2023-01-29T00:43:49;-2.70;1.00
21459;DHT22;10891;49.350;19.386;2023-01-29T00:46:33;-2.70;1.00
21459;DHT22;10891;49.350;19.386;2023-01-29T00:49:00;-2.60;1.00
21459;DHT22;10891;49.350;19.386;2023-01-29T00:51:27;-2.60;1.00
21459;DHT22;10891;49.350;19.386;2023-01-29T00:53:55;-2.50;1.00
21459;DHT22;10891;49.350;19.386;2023-01-29T00:56:23;-2.50;99.90
21459;DHT22;10891;49.350;19.386;2023-01-29T00:58:49;-2.80;99.90
21459;DHT22;10891;49.350;19.386;2023-01-29T01:01:16;-2.80;99.90
21459;DHT22;10891;49.350;19.386;2023-01-29T01:04:03;-2.80;1.00
21459;DHT22;10891;49.350;19.386;2023-01-29T01:06:29;-2.80;1.00
21459;DHT22;10891;49.350;19.386;2023-01-29T01:08:58;-2.70;1.00
21459;DHT22;10891;49.350;19.386;2023-01-29T01:11:42;-2.60;1.00
21459;DHT22;10891;49.350;19.386;2023-01-29T01:14:09;-2.60;1.00
21459;DHT22;10891;49.350;19.386;2023-01-29T01:16:36;-2.60;1.00
21459;DHT22;10891;49.350;19.386;2023-01-29T01:19:03;-2.60;1.00
21459;DHT22;10891;49.350;19.386;2023-01-29T01:21:31;-2.50;1.00
21459;DHT22;10891;49.350;19.386;2023-01-29T01:23:59;-2.50;1.00
21459;DHT22;10891;49.350;19.386;2023-01-29T01:26:30;-2.40;99.90
21459;DHT22;10891;49.350;19.386;2023-01-29T01:28:57;-2.50;99.90
21459;DHT22;10891;49.350;19.386;2023-01-29T01:31:24;-2.50;99.90
21459;DHT22;10891;49.350;19.386;2023-01-29T01:33:51;-2.60;99.90
21459;DHT22;10891;49.350;19.386;2023-01-29T01:36:18;-2.60;1.00
21459;DHT22;10891;49.350;19.386;2023-01-29T01:38:45;-2.70;1.00
21459;DHT22;10891;49.350;19.386;2023-01-29T01:41:16;-2.60;1.00
21459;DHT22;10891;49.350;19.386;2023-01-29T01:43:51;-2.60;1.00
21459;DHT22;10891;49.350;19.386;2023-01-29T01:46:19;-2.60;1.00
21459;DHT22;10891;49.350;19.386;2023-01-29T01:48:49;-2.60;1.00
21459;DHT22;10891;49.350;19.386;2023-01-29T01:51:18;-2.60;1.00
21459;DHT22;10891;49.350;19.386;2023-01-29T01:53:51;-2.50;1.00
21459;DHT22;10891;49.350;19.386;2023-01-29T01:56:27;-2.60;1.00
21459;DHT22;10891;49.350;19.386;2023-01-29T01:59:05;-2.80;1.00
21459;DHT22;10891;49.350;19.386;2023-01-29T02:01:33;-2.90;1.00
21459;DHT22;10891;49.350;19.386;2023-01-29T02:04:03;-2.90;1.00
21459;DHT22;10891;49.350;19.386;2023-01-29T02:06:48;-2.90;1.00
21459;DHT22;10891;49.350;19.386;2023-01-29T02:09:40;-2.90;1.00
21459;DHT22;10891;49.350;19.386;2023-01-29T02:12:11;-2.90;1.00
21459;DHT22;10891;49.350;19.386;2023-01-29T02:14:39;-2.90;1.00
21459;DHT22;10891;49.350;19.386;2023-01-29T02:17:08;-2.80;1.00
21459;DHT22;10891;49.350;19.386;2023-01-29T02:19:43;-2.70;1.00
21459;DHT22;10891;49.350;19.386;2023-01-29T02:22:26;-2.60;1.00
21459;DHT22;10891;49.350;19.386;2023-01-29T02:25:08;-2.50;1.00
21459;DHT22;10891;49.350;19.386;2023-01-29T02:30:43;-2.50;1.00
21459;DHT22;10891;49.350;19.386;2023-01-29T02:33:18;-2.40;1.00
21459;DHT22;10891;49.350;19.386;2023-01-29T02:35:55;-2.50;1.00
21459;DHT22;10891;49.350;19.386;2023-01-29T02:38:29;-2.70;1.00
21459;DHT22;10891;49.350;19.386;2023-01-29T02:41:02;-2.70;1.00
21459;DHT22;10891;49.350;19.386;2023-01-29T02:43:38;-2.60;1.00
21459;DHT22;10891;49.350;19.386;2023-01-29T02:46:16;-2.70;1.00
21459;DHT22;10891;49.350;19.386;2023-01-29T02:48:50;-2.70;1.00
21459;DHT22;10891;49.350;19.386;2023-01-29T02:51:20;-2.70;1.00
21459;DHT22;10891;49.350;19.386;2023-01-29T02:53:54;-2.70;1.00
21459;DHT22;10891;49.350;19.386;2023-01-29T02:56:29;-2.90;1.00
21459;DHT22;10891;49.350;19.386;2023-01-29T02:59:00;-2.90;1.00
21459;DHT22;10891;49.350;19.386;2023-01-29T03:01:33;-3.00;1.00
21459;DHT22;10891;49.350;19.386;2023-01-29T03:04:05;-3.00;1.00
21459;DHT22;10891;49.350;19.386;2023-01-29T03:06:37;-3.00;1.00
21459;DHT22;10891;49.350;19.386;2023-01-29T03:09:10;-3.10;1.00
21459;DHT22;10891;49.350;19.386;2023-01-29T03:11:41;-3.10;1.00
21459;DHT22;10891;49.350;19.386;2023-01-29T03:14:13;-3.10;1.00
21459;DHT22;10891;49.350;19.386;2023-01-29T03:16:46;-3.10;1.00
21459;DHT22;10891;49.350;19.386;2023-01-29T03:19:18;-3.00;1.00
21459;DHT22;10891;49.350;19.386;2023-01-29T03:21:49;-3.00;1.00
21459;DHT22;10891;49.350;19.386;2023-01-29T03:24:29;-3.10;1.00
21459;DHT22;10891;49.350;19.386;2023-01-29T03:27:17;-3.10;1.00
21459;DHT22;10891;49.350;19.386;2023-01-29T03:30:04;-3.00;1.00
21459;DHT22;10891;49.350;19.386;2023-01-29T03:32:53;-2.90;1.00
21459;DHT22;10891;49.350;19.386;2023-01-29T03:35:24;-2.80;1.00
21459;DHT22;10891;49.350;19.386;2023-01-29T03:38:00;-2.70;1.00
21459;DHT22;10891;49.350;19.386;2023-01-29T03:40:28;-2.70;1.00
21459;DHT22;10891;49.350;19.386;2023-01-29T03:43:07;-2.60;1.00
21459;DHT22;10891;49.350;19.386;2023-01-29T03:45:40;-2.60;1.00
21459;DHT22;10891;49.350;19.386;2023-01-29T03:48:17;-2.60;1.00
21459;DHT22;10891;49.350;19.386;2023-01-29T03:50:53;-2.60;1.00
21459;DHT22;10891;49.350;19.386;2023-01-29T03:53:26;-2.70;1.00
21459;DHT22;10891;49.350;19.386;2023-01-29T03:55:57;-2.70;1.00
21459;DHT22;10891;49.350;19.386;2023-01-29T03:58:34;-2.80;1.00
21459;DHT22;10891;49.350;19.386;2023-01-29T04:01:10;-3.00;1.00
21459;DHT22;10891;49.350;19.386;2023-01-29T04:03:47;-2.90;1.00
21459;DHT22;10891;49.350;19.386;2023-01-29T04:06:17;-2.80;1.00
21459;DHT22;10891;49.350;19.386;2023-01-29T04:08:50;-2.90;1.00
21459;DHT22;10891;49.350;19.386;2023-01-29T04:11:19;-2.90;1.00
21459;DHT22;10891;49.350;19.386;2023-01-29T04:13:48;-2.90;1.00
21459;DHT22;10891;49.350;19.386;2023-01-29T04:16:18;-2.90;1.00
21459;DHT22;10891;49.350;19.386;2023-01-29T04:18:48;-2.80;1.00
21459;DHT22;10891;49.350;19.386;2023-01-29T04:21:15;-2.80;1.00
21459;DHT22;10891;49.350;19.386;2023-01-29T04:23:42;-2.60;1.00
21459;DHT22;10891;49.350;19.386;2023-01-29T04:26:23;-2.60;1.00
21459;DHT22;10891;49.350;19.386;2023-01-29T04:28:58;-2.70;99.90
21459;DHT22;10891;49.350;19.386;2023-01-29T04:31:33;-2.90;99.90
21459;DHT22;10891;49.350;19.386;2023-01-29T04:34:12;-2.90;99.60
21459;DHT22;10891;49.350;19.386;2023-01-29T04:36:52;-2.90;99.90
21459;DHT22;10891;49.350;19.386;2023-01-29T04:39:23;-3.00;99.90
21459;DHT22;10891;49.350;19.386;2023-01-29T04:41:54;-3.00;99.90
21459;DHT22;10891;49.350;19.386;2023-01-29T04:44:34;-3.00;99.90
21459;DHT22;10891;49.350;19.386;2023-01-29T04:47:14;-3.00;99.90
21459;DHT22;10891;49.350;19.386;2023-01-29T04:49:45;-3.00;99.90
21459;DHT22;10891;49.350;19.386;2023-01-29T04:52:21;-2.90;99.90
21459;DHT22;10891;49.350;19.386;2023-01-29T04:54:57;-2.90;99.90
21459;DHT22;10891;49.350;19.386;2023-01-29T04:57:28;-2.90;99.90
21459;DHT22;10891;49.350;19.386;2023-01-29T05:00:03;-2.90;99.90
21459;DHT22;10891;49.350;19.386;2023-01-29T05:02:36;-2.90;99.90
21459;DHT22;10891;49.350;19.386;2023-01-29T05:05:06;-2.80;99.90
21459;DHT22;10891;49.350;19.386;2023-01-29T05:07:37;-2.80;99.90
21459;DHT22;10891;49.350;19.386;2023-01-29T05:10:08;-2.80;99.90
21459;DHT22;10891;49.350;19.386;2023-01-29T05:12:36;-2.70;99.90
21459;DHT22;10891;49.350;19.386;2023-01-29T05:15:10;-2.70;99.90
21459;DHT22;10891;49.350;19.386;2023-01-29T05:17:38;-2.80;99.90
21459;DHT22;10891;49.350;19.386;2023-01-29T05:20:10;-2.90;99.90
21459;DHT22;10891;49.350;19.386;2023-01-29T05:22:39;-3.10;99.90
21459;DHT22;10891;49.350;19.386;2023-01-29T05:25:19;-3.20;99.90
21459;DHT22;10891;49.350;19.386;2023-01-29T05:27:48;-3.10;99.90
21459;DHT22;10891;49.350;19.386;2023-01-29T05:30:32;-3.20;99.90
21459;DHT22;10891;49.350;19.386;2023-01-29T05:33:00;-3.20;99.90
21459;DHT22;10891;49.350;19.386;2023-01-29T05:35:28;-3.30;99.90
21459;DHT22;10891;49.350;19.386;2023-01-29T05:37:56;-3.20;99.90
21459;DHT22;10891;49.350;19.386;2023-01-29T05:40:23;-3.30;99.90
21459;DHT22;10891;49.350;19.386;2023-01-29T05:42:50;-3.50;99.90
21459;DHT22;10891;49.350;19.386;2023-01-29T05:45:18;-3.40;99.90
21459;DHT22;10891;49.350;19.386;2023-01-29T05:47:47;-3.40;99.90
21459;DHT22;10891;49.350;19.386;2023-01-29T05:50:14;-3.40;99.90
21459;DHT22;10891;49.350;19.386;2023-01-29T05:52:43;-3.30;99.90
21459;DHT22;10891;49.350;19.386;2023-01-29T05:55:10;-3.40;99.90
21459;DHT22;10891;49.350;19.386;2023-01-29T05:57:38;-3.40;99.90
21459;DHT22;10891;49.350;19.386;2023-01-29T06:00:06;-3.50;99.90
21459;DHT22;10891;49.350;19.386;2023-01-29T06:02:34;-3.40;99.90
21459;DHT22;10891;49.350;19.386;2023-01-29T06:05:01;-3.30;99.90
21459;DHT22;10891;49.350;19.386;2023-01-29T06:07:28;-3.40;99.90
21459;DHT22;10891;49.350;19.386;2023-01-29T06:09:56;-3.40;99.90
21459;DHT22;10891;49.350;19.386;2023-01-29T06:12:23;-3.40;99.90
21459;DHT22;10891;49.350;19.386;2023-01-29T06:14:50;-3.30;99.90
21459;DHT22;10891;49.350;19.386;2023-01-29T06:17:17;-3.30;99.90
21459;DHT22;10891;49.350;19.386;2023-01-29T06:19:46;-3.30;99.90
21459;DHT22;10891;49.350;19.386;2023-01-29T06:22:13;-3.30;99.90
21459;DHT22;10891;49.350;19.386;2023-01-29T06:24:40;-3.20;99.90
21459;DHT22;10891;49.350;19.386;2023-01-29T06:27:09;-3.10;99.90
21459;DHT22;10891;49.350;19.386;2023-01-29T06:29:36;-3.00;99.90
21459;DHT22;10891;49.350;19.386;2023-01-29T06:32:03;-2.90;99.90
21459;DHT22;10891;49.350;19.386;2023-01-29T06:34:30;-2.80;99.90
21459;DHT22;10891;49.350;19.386;2023-01-29T06:36:57;-2.80;99.90
21459;DHT22;10891;49.350;19.386;2023-01-29T06:39:25;-2.70;99.90
21459;DHT22;10891;49.350;19.386;2023-01-29T06:41:52;-2.70;99.90
21459;DHT22;10891;49.350;19.386;2023-01-29T06:44:20;-2.80;99.90
21459;DHT22;10891;49.350;19.386;2023-01-29T06:46:47;-2.90;99.90
21459;DHT22;10891;49.350;19.386;2023-01-29T06:49:15;-2.80;99.90
21459;DHT22;10891;49.350;19.386;2023-01-29T06:51:42;-2.70;99.90
21459;DHT22;10891;49.350;19.386;2023-01-29T06:54:09;-2.70;99.90
21459;DHT22;10891;49.350;19.386;2023-01-29T06:56:36;-2.60;99.90
21459;DHT22;10891;49.350;19.386;2023-01-29T06:59:03;-2.60;99.90
21459;DHT22;10891;49.350;19.386;2023-01-29T07:01:31;-2.70;99.90
21459;DHT22;10891;49.350;19.386;2023-01-29T07:03:58;-2.90;99.90
21459;DHT22;10891;49.350;19.386;2023-01-29T07:06:28;-3.00;99.90
21459;DHT22;10891;49.350;19.386;2023-01-29T07:08:55;-3.00;99.90
21459;DHT22;10891;49.350;19.386;2023-01-29T07:11:22;-3.00;99.90
21459;DHT22;10891;49.350;19.386;2023-01-29T07:13:49;-3.10;99.90
21459;DHT22;10891;49.350;19.386;2023-01-29T07:16:16;-3.00;99.90
21459;DHT22;10891;49.350;19.386;2023-01-29T07:18:45;-2.90;99.90
21459;DHT22;10891;49.350;19.386;2023-01-29T07:21:12;-2.90;99.90
21459;DHT22;10891;49.350;19.386;2023-01-29T07:23:39;-3.00;99.90
21459;DHT22;10891;49.350;19.386;2023-01-29T07:26:06;-3.00;99.90
21459;DHT22;10891;49.350;19.386;2023-01-29T07:28:35;-3.00;99.90
21459;DHT22;10891;49.350;19.386;2023-01-29T07:31:04;-3.00;99.90
21459;DHT22;10891;49.350;19.386;2023-01-29T07:33:31;-3.00;99.90
21459;DHT22;10891;49.350;19.386;2023-01-29T07:35:59;-2.80;99.90
21459;DHT22;10891;49.350;19.386;2023-01-29T07:38:26;-2.80;99.90
21459;DHT22;10891;49.350;19.386;2023-01-29T07:40:53;-2.80;99.90
21459;DHT22;10891;49.350;19.386;2023-01-29T07:43:20;-2.80;99.90
21459;DHT22;10891;49.350;19.386;2023-01-29T07:45:49;-2.70;99.90
21459;DHT22;10891;49.350;19.386;2023-01-29T07:48:16;-2.70;99.90
21459;DHT22;10891;49.350;19.386;2023-01-29T07:50:43;-2.80;99.90
21459;DHT22;10891;49.350;19.386;2023-01-29T07:53:13;-2.80;99.90
21459;DHT22;10891;49.350;19.386;2023-01-29T07:55:43;-2.90;99.90
21459;DHT22;10891;49.350;19.386;2023-01-29T07:58:10;-3.00;99.90
21459;DHT22;10891;49.350;19.386;2023-01-29T08:00:37;-2.90;99.90
21459;DHT22;10891;49.350;19.386;2023-01-29T08:03:05;-2.80;99.90
21459;DHT22;10891;49.350;19.386;2023-01-29T08:05:33;-2.80;99.90
21459;DHT22;10891;49.350;19.386;2023-01-29T08:07:59;-2.80;99.90
21459;DHT22;10891;49.350;19.386;2023-01-29T08:10:28;-2.90;99.90
21459;DHT22;10891;49.350;19.386;2023-01-29T08:12:56;-2.90;99.90
21459;DHT22;10891;49.350;19.386;2023-01-29T08:15:23;-2.80;99.90
21459;DHT22;10891;49.350;19.386;2023-01-29T08:17:50;-3.00;99.90
21459;DHT22;10891;49.350;19.386;2023-01-29T08:20:18;-3.10;99.90
21459;DHT22;10891;49.350;19.386;2023-01-29T08:22:45;-3.10;99.90
21459;DHT22;10891;49.350;19.386;2023-01-29T08:25:12;-3.20;99.90
21459;DHT22;10891;49.350;19.386;2023-01-29T08:27:41;-3.20;99.90
21459;DHT22;10891;49.350;19.386;2023-01-29T08:30:09;-3.10;99.90
21459;DHT22;10891;49.350;19.386;2023-01-29T08:32:36;-3.00;99.90
21459;DHT22;10891;49.350;19.386;2023-01-29T08:35:04;-2.90;99.90
21459;DHT22;10891;49.350;19.386;2023-01-29T08:37:31;-2.90;99.90
21459;DHT22;10891;49.350;19.386;2023-01-29T08:39:58;-2.80;99.90
21459;DHT22;10891;49.350;19.386;2023-01-29T08:42:25;-3.00;99.90
21459;DHT22;10891;49.350;19.386;2023-01-29T08:44:53;-3.00;99.90
21459;DHT22;10891;49.350;19.386;2023-01-29T08:47:20;-3.00;99.90
21459;DHT22;10891;49.350;19.386;2023-01-29T08:49:47;-3.10;99.90
21459;DHT22;10891;49.350;19.386;2023-01-29T08:52:14;-3.10;99.90
21459;DHT22;10891;49.350;19.386;2023-01-29T08:54:42;-3.00;99.90
21459;DHT22;10891;49.350;19.386;2023-01-29T08:57:08;-3.00;99.90
21459;DHT22;10891;49.350;19.386;2023-01-29T08:59:35;-3.00;99.90
21459;DHT22;10891;49.350;19.386;2023-01-29T09:02:04;-3.00;99.90
21459;DHT22;10891;49.350;19.386;2023-01-29T09:04:31;-3.00;99.90
21459;DHT22;10891;49.350;19.386;2023-01-29T09:06:58;-3.00;99.90
21459;DHT22;10891;49.350;19.386;2023-01-29T09:09:25;-3.20;99.90
21459;DHT22;10891;49.350;19.386;2023-01-29T09:11:52;-3.30;99.90
21459;DHT22;10891;49.350;19.386;2023-01-29T09:14:19;-3.20;99.90
21459;DHT22;10891;49.350;19.386;2023-01-29T09:16:46;-3.20;99.90
21459;DHT22;10891;49.350;19.386;2023-01-29T09:19:15;-3.10;99.90
21459;DHT22;10891;49.350;19.386;2023-01-29T09:21:42;-3.00;99.90
21459;DHT22;10891;49.350;19.386;2023-01-29T09:24:09;-3.00;99.90
21459;DHT22;10891;49.350;19.386;2023-01-29T09:26:37;-2.80;99.90
21459;DHT22;10891;49.350;19.386;2023-01-29T09:29:05;-3.00;99.90
21459;DHT22;10891;49.350;19.386;2023-01-29T09:31:32;-3.00;99.90
21459;DHT22;10891;49.350;19.386;2023-01-29T09:33:59;-3.00;99.90
21459;DHT22;10891;49.350;19.386;2023-01-29T09:36:27;-3.10;99.90
21459;DHT22;10891;49.350;19.386;2023-01-29T09:38:55;-3.00;99.90
21459;DHT22;10891;49.350;19.386;2023-01-29T09:41:36;-2.90;99.90
21459;DHT22;10891;49.350;19.386;2023-01-29T09:44:12;-2.80;99.90
21459;DHT22;10891;49.350;19.386;2023-01-29T09:46:46;-2.50;99.90
21459;DHT22;10891;49.350;19.386;2023-01-29T09:49:18;-2.20;99.90
21459;DHT22;10891;49.350;19.386;2023-01-29T09:51:50;-2.00;99.90
21459;DHT22;10891;49.350;19.386;2023-01-29T09:54:23;-1.90;99.90
21459;DHT22;10891;49.350;19.386;2023-01-29T09:56:54;-2.00;99.90
21459;DHT22;10891;49.350;19.386;2023-01-29T09:59:24;-2.20;99.90
21459;DHT22;10891;49.350;19.386;2023-01-29T10:01:58;-2.00;99.90
21459;DHT22;10891;49.350;19.386;2023-01-29T10:04:46;-2.30;99.90
21459;DHT22;10891;49.350;19.386;2023-01-29T10:07:30;-2.10;99.90
21459;DHT22;10891;49.350;19.386;2023-01-29T10:10:13;-2.00;99.90
21459;DHT22;10891;49.350;19.386;2023-01-29T10:12:54;-1.70;99.90
21459;DHT22;10891;49.350;19.386;2023-01-29T10:15:37;-1.40;99.90
21459;DHT22;10891;49.350;19.386;2023-01-29T10:18:39;-1.20;99.90
21459;DHT22;10891;49.350;19.386;2023-01-29T10:21:23;-1.10;99.90
21459;DHT22;10891;49.350;19.386;2023-01-29T10:24:00;-1.00;99.90
21459;DHT22;10891;49.350;19.386;2023-01-29T10:26:33;-0.80;99.90
21459;DHT22;10891;49.350;19.386;2023-01-29T10:29:05;-0.70;99.90
21459;DHT22;10891;49.350;19.386;2023-01-29T10:31:34;-0.70;99.90
21459;DHT22;10891;49.350;19.386;2023-01-29T10:34:06;-0.80;99.90
21459;DHT22;10891;49.350;19.386;2023-01-29T10:36:41;-0.70;99.90
21459;DHT22;10891;49.350;19.386;2023-01-29T10:39:15;-1.10;99.90
21459;DHT22;10891;49.350;19.386;2023-01-29T10:41:56;-1.10;99.90
21459;DHT22;10891;49.350;19.386;2023-01-29T10:44:31;-0.80;99.90
21459;DHT22;10891;49.350;19.386;2023-01-29T10:47:29;-0.50;99.90
21459;DHT22;10891;49.350;19.386;2023-01-29T10:50:11;-0.20;99.90
21459;DHT22;10891;49.350;19.386;2023-01-29T10:52:58;-0.20;99.90
21459;DHT22;10891;49.350;19.386;2023-01-29T10:55:41;-0.40;99.90
21459;DHT22;10891;49.350;19.386;2023-01-29T10:58:16;-0.40;99.90
21459;DHT22;10891;49.350;19.386;2023-01-29T11:00:45;-0.30;99.90
21459;DHT22;10891;49.350;19.386;2023-01-29T11:03:17;-0.50;99.90
21459;DHT22;10891;49.350;19.386;2023-01-29T11:05:52;-0.60;99.90
21459;DHT22;10891;49.350;19.386;2023-01-29T11:08:22;-0.60;99.90
21459;DHT22;10891;49.350;19.386;2023-01-29T11:11:02;-0.40;99.90
21459;DHT22;10891;49.350;19.386;2023-01-29T11:13:37;-0.30;99.90
21459;DHT22;10891;49.350;19.386;2023-01-29T11:16:07;0.00;99.90
21459;DHT22;10891;49.350;19.386;2023-01-29T11:18:55;0.20;99.90
21459;DHT22;10891;49.350;19.386;2023-01-29T11:21:24;0.60;99.90
21459;DHT22;10891;49.350;19.386;2023-01-29T11:24:05;0.80;99.90
21459;DHT22;10891;49.350;19.386;2023-01-29T11:26:36;0.90;99.90
21459;DHT22;10891;49.350;19.386;2023-01-29T11:29:36;0.70;99.90
21459;DHT22;10891;49.350;19.386;2023-01-29T11:32:05;1.10;99.90
21459;DHT22;10891;49.350;19.386;2023-01-29T11:34:33;1.20;99.90
21459;DHT22;10891;49.350;19.386;2023-01-29T11:37:01;1.10;99.90
21459;DHT22;10891;49.350;19.386;2023-01-29T11:39:30;0.80;99.90
21459;DHT22;10891;49.350;19.386;2023-01-29T11:41:59;0.70;99.90
21459;DHT22;10891;49.350;19.386;2023-01-29T11:44:30;0.70;99.90
21459;DHT22;10891;49.350;19.386;2023-01-29T11:47:14;0.60;99.90
21459;DHT22;10891;49.350;19.386;2023-01-29T11:49:47;0.50;99.90
21459;DHT22;10891;49.350;19.386;2023-01-29T11:52:17;0.80;99.90
21459;DHT22;10891;49.350;19.386;2023-01-29T11:54:48;0.90;99.90
21459;DHT22;10891;49.350;19.386;2023-01-29T11:57:28;1.30;99.90
21459;DHT22;10891;49.350;19.386;2023-01-29T11:59:59;1.80;99.90
21459;DHT22;10891;49.350;19.386;2023-01-29T12:02:33;1.80;99.90
21459;DHT22;10891;49.350;19.386;2023-01-29T12:05:05;1.70;99.90
21459;DHT22;10891;49.350;19.386;2023-01-29T12:07:33;1.70;99.90
21459;DHT22;10891;49.350;19.386;2023-01-29T12:10:00;1.60;99.90
21459;DHT22;10891;49.350;19.386;2023-01-29T12:12:36;1.50;99.90
21459;DHT22;10891;49.350;19.386;2023-01-29T12:15:16;1.40;99.90
21459;DHT22;10891;49.350;19.386;2023-01-29T12:17:49;1.20;99.90
21459;DHT22;10891;49.350;19.386;2023-01-29T12:20:22;0.80;99.90
21459;DHT22;10891;49.350;19.386;2023-01-29T12:22:58;0.50;99.90
21459;DHT22;10891;49.350;19.386;2023-01-29T12:25:37;0.20;99.90
21459;DHT22;10891;49.350;19.386;2023-01-29T12:28:25;0.00;99.90
21459;DHT22;10891;49.350;19.386;2023-01-29T12:31:05;-0.50;99.90
21459;DHT22;10891;49.350;19.386;2023-01-29T12:33:40;-0.30;99.90
21459;DHT22;10891;49.350;19.386;2023-01-29T12:36:13;0.20;99.90
21459;DHT22;10891;49.350;19.386;2023-01-29T12:38:43;0.50;99.90
21459;DHT22;10891;49.350;19.386;2023-01-29T12:41:32;0.50;99.90
21459;DHT22;10891;49.350;19.386;2023-01-29T12:44:06;0.50;99.90
21459;DHT22;10891;49.350;19.386;2023-01-29T12:46:39;0.20;99.90
21459;DHT22;10891;49.350;19.386;2023-01-29T12:49:12;0.30;99.90
21459;DHT22;10891;49.350;19.386;2023-01-29T12:51:46;0.00;99.90
21459;DHT22;10891;49.350;19.386;2023-01-29T12:54:19;-0.40;99.90
21459;DHT22;10891;49.350;19.386;2023-01-29T12:56:49;-0.80;99.90
21459;DHT22;10891;49.350;19.386;2023-01-29T12:59:23;-1.00;99.90
21459;DHT22;10891;49.350;19.386;2023-01-29T13:01:53;-1.00;99.90
21459;DHT22;10891;49.350;19.386;2023-01-29T13:04:29;-1.00;99.90
21459;DHT22;10891;49.350;19.386;2023-01-29T13:07:06;-1.00;99.90
21459;DHT22;10891;49.350;19.386;2023-01-29T13:09:36;-1.10;99.90
21459;DHT22;10891;49.350;19.386;2023-01-29T13:12:10;-1.00;99.90
21459;DHT22;10891;49.350;19.386;2023-01-29T13:14:43;-0.80;99.90
21459;DHT22;10891;49.350;19.386;2023-01-29T13:17:15;-0.70;99.90
21459;DHT22;10891;49.350;19.386;2023-01-29T13:19:45;-0.90;99.90
21459;DHT22;10891;49.350;19.386;2023-01-29T13:22:18;-1.00;99.90
21459;DHT22;10891;49.350;19.386;2023-01-29T13:24:48;-1.40;99.90
21459;DHT22;10891;49.350;19.386;2023-01-29T13:27:20;-1.50;99.90
21459;DHT22;10891;49.350;19.386;2023-01-29T13:29:49;-1.40;99.90
21459;DHT22;10891;49.350;19.386;2023-01-29T13:32:22;-1.50;99.90
21459;DHT22;10891;49.350;19.386;2023-01-29T13:34:50;-1.60;99.90
21459;DHT22;10891;49.350;19.386;2023-01-29T13:37:26;-1.70;99.90
21459;DHT22;10891;49.350;19.386;2023-01-29T13:39:56;-1.80;99.90
21459;DHT22;10891;49.350;19.386;2023-01-29T13:42:32;-2.00;99.90
21459;DHT22;10891;49.350;19.386;2023-01-29T13:45:04;-2.00;99.90
21459;DHT22;10891;49.350;19.386;2023-01-29T13:47:33;-2.00;99.90
21459;DHT22;10891;49.350;19.386;2023-01-29T13:50:05;-2.00;99.90
21459;DHT22;10891;49.350;19.386;2023-01-29T13:52:36;-2.10;99.90
21459;DHT22;10891;49.350;19.386;2023-01-29T13:55:08;-1.80;99.90
21459;DHT22;10891;49.350;19.386;2023-01-29T13:57:54;-1.60;99.90
21459;DHT22;10891;49.350;19.386;2023-01-29T14:00:50;-1.60;99.90
21459;DHT22;10891;49.350;19.386;2023-01-29T14:03:50;-1.50;99.90
21459;DHT22;10891;49.350;19.386;2023-01-29T14:06:39;-1.20;99.90
21459;DHT22;10891;49.350;19.386;2023-01-29T14:12:40;-0.90;99.90
21459;DHT22;10891;49.350;19.386;2023-01-29T14:15:16;-1.00;99.90
21459;DHT22;10891;49.350;19.386;2023-01-29T14:17:57;-1.30;99.90
21459;DHT22;10891;49.350;19.386;2023-01-29T14:20:33;-1.50;99.90
21459;DHT22;10891;49.350;19.386;2023-01-29T14:23:02;-1.50;99.90
21459;DHT22;10891;49.350;19.386;2023-01-29T14:25:31;-1.70;99.90
21459;DHT22;10891;49.350;19.386;2023-01-29T14:28:00;-2.00;99.90
21459;DHT22;10891;49.350;19.386;2023-01-29T14:30:30;-2.10;99.90
21459;DHT22;10891;49.350;19.386;2023-01-29T14:32:59;-2.10;99.90
21459;DHT22;10891;49.350;19.386;2023-01-29T14:35:29;-2.10;99.90
21459;DHT22;10891;49.350;19.386;2023-01-29T14:38:00;-2.20;99.90
21459;DHT22;10891;49.350;19.386;2023-01-29T14:40:29;-2.50;99.90
21459;DHT22;10891;49.350;19.386;2023-01-29T14:42:59;-2.60;99.90
21459;DHT22;10891;49.350;19.386;2023-01-29T14:45:28;-2.70;99.90
21459;DHT22;10891;49.350;19.386;2023-01-29T14:47:59;-2.80;99.90
21459;DHT22;10891;49.350;19.386;2023-01-29T14:50:54;-2.90;99.90
21459;DHT22;10891;49.350;19.386;2023-01-29T14:53:41;-3.10;99.90
21459;DHT22;10891;49.350;19.386;2023-01-29T14:56:13;-3.10;99.90
21459;DHT22;10891;49.350;19.386;2023-01-29T14:58:43;-3.00;99.90
21459;DHT22;10891;49.350;19.386;2023-01-29T15:01:18;-3.10;99.90
21459;DHT22;10891;49.350;19.386;2023-01-29T15:03:50;-3.10;99.90
21459;DHT22;10891;49.350;19.386;2023-01-29T15:06:23;-3.20;99.90
21459;DHT22;10891;49.350;19.386;2023-01-29T15:08:59;-3.30;99.90
21459;DHT22;10891;49.350;19.386;2023-01-29T15:11:34;-3.40;99.90
21459;DHT22;10891;49.350;19.386;2023-01-29T15:14:20;-3.40;99.90
21459;DHT22;10891;49.350;19.386;2023-01-29T15:17:17;-3.50;99.90
21459;DHT22;10891;49.350;19.386;2023-01-29T15:19:48;-3.60;99.90
21459;DHT22;10891;49.350;19.386;2023-01-29T15:22:16;-3.70;99.90
21459;DHT22;10891;49.350;19.386;2023-01-29T15:24:45;-3.80;99.90
21459;DHT22;10891;49.350;19.386;2023-01-29T15:27:15;-4.00;99.90
21459;DHT22;10891;49.350;19.386;2023-01-29T15:29:45;-4.10;99.90
21459;DHT22;10891;49.350;19.386;2023-01-29T15:32:17;-4.40;99.90
21459;DHT22;10891;49.350;19.386;2023-01-29T15:34:56;-4.40;99.90
21459;DHT22;10891;49.350;19.386;2023-01-29T15:37:28;-4.60;99.90
21459;DHT22;10891;49.350;19.386;2023-01-29T15:39:57;-4.70;99.90
21459;DHT22;10891;49.350;19.386;2023-01-29T15:42:26;-4.80;99.90
21459;DHT22;10891;49.350;19.386;2023-01-29T15:44:53;-4.80;99.90
21459;DHT22;10891;49.350;19.386;2023-01-29T15:47:24;-4.70;99.90
21459;DHT22;10891;49.350;19.386;2023-01-29T15:49:52;-4.70;99.90
21459;DHT22;10891;49.350;19.386;2023-01-29T15:52:26;-4.60;99.90
21459;DHT22;10891;49.350;19.386;2023-01-29T15:54:55;-4.60;99.90
21459;DHT22;10891;49.350;19.386;2023-01-29T15:57:32;-4.60;99.90